sensor_id;sensor_type;location;lat;lon;timestamp;temperature;humidity
41678;DHT22;27364;49.026;8.712;2023-04-03T00:01:25;5.70;99.90
41678;DHT22;27364;49.026;8.712;2023-04-03T00:03:51;5.80;99.90
41678;DHT22;27364;49.026;8.712;2023-04-03T00:06:17;5.70;99.90
41678;DHT22;27364;49.026;8.712;2023-04-03T00:08:43;5.70;99.90
41678;DHT22;27364;49.026;8.712;2023-04-03T00:11:09;5.70;99.90
41678;DHT22;27364;49.026;8.712;2023-04-03T00:13:36;5.70;99.90
41678;DHT22;27364;49.026;8.712;2023-04-03T00:16:01;5.70;99.90
41678;DHT22;27364;49.026;8.712;2023-04-03T00:18:30;5.80;99.90
41678;DHT22;27364;49.026;8.712;2023-04-03T00:20:55;5.70;99.90
41678;DHT22;27364;49.026;8.712;2023-04-03T00:23:21;5.70;99.90
41678;DHT22;27364;49.026;8.712;2023-04-03T00:25:49;5.70;99.90
41678;DHT22;27364;49.026;8.712;2023-04-03T00:28:15;5.60;99.90
41678;DHT22;27364;49.026;8.712;2023-04-03T00:30:41;5.70;99.90
41678;DHT22;27364;49.026;8.712;2023-04-03T00:33:07;5.70;99.90
41678;DHT22;27364;49.026;8.712;2023-04-03T00:35:34;5.70;99.90
41678;DHT22;27364;49.026;8.712;2023-04-03T00:38:00;5.60;99.90
41678;DHT22;27364;49.026;8.712;2023-04-03T00:40:27;5.60;99.90
41678;DHT22;27364;49.026;8.712;2023-04-03T00:42:58;5.60;99.90
41678;DHT22;27364;49.026;8.712;2023-04-03T00:45:36;5.60;99.90
41678;DHT22;27364;49.026;8.712;2023-04-03T00:48:04;5.50;99.90
41678;DHT22;27364;49.026;8.712;2023-04-03T00:50:33;5.40;99.90
41678;DHT22;27364;49.026;8.712;2023-04-03T00:53:00;5.40;99.90
41678;DHT22;27364;49.026;8.712;2023-04-03T00:55:26;5.40;99.90
41678;DHT22;27364;49.026;8.712;2023-04-03T00:57:53;5.30;99.90
41678;DHT22;27364;49.026;8.712;2023-04-03T01:00:20;5.40;99.90
41678;DHT22;27364;49.026;8.712;2023-04-03T01:02:47;5.30;99.90
41678;DHT22;27364;49.026;8.712;2023-04-03T01:05:14;5.30;99.90
41678;DHT22;27364;49.026;8.712;2023-04-03T01:07:40;5.30;99.90
41678;DHT22;27364;49.026;8.712;2023-04-03T01:10:09;5.30;99.90
41678;DHT22;27364;49.026;8.712;2023-04-03T01:12:41;5.20;99.90
41678;DHT22;27364;49.026;8.712;2023-04-03T01:15:10;5.20;99.90
41678;DHT22;27364;49.026;8.712;2023-04-03T01:17:45;5.10;99.90
41678;DHT22;27364;49.026;8.712;2023-04-03T01:20:23;5.10;99.90
41678;DHT22;27364;49.026;8.712;2023-04-03T01:25:39;5.10;99.90
41678;DHT22;27364;49.026;8.712;2023-04-03T01:28:08;5.10;99.90
41678;DHT22;27364;49.026;8.712;2023-04-03T01:30:39;5.10;99.90
41678;DHT22;27364;49.026;8.712;2023-04-03T01:33:06;5.10;99.90
41678;DHT22;27364;49.026;8.712;2023-04-03T01:35:32;5.10;99.90
41678;DHT22;27364;49.026;8.712;2023-04-03T01:37:57;5.00;99.90
41678;DHT22;27364;49.026;8.712;2023-04-03T01:40:23;5.00;99.90
41678;DHT22;27364;49.026;8.712;2023-04-03T01:42:48;5.00;99.90
41678;DHT22;27364;49.026;8.712;2023-04-03T01:45:14;5.00;99.90
41678;DHT22;27364;49.026;8.712;2023-04-03T01:47:40;4.90;99.90
41678;DHT22;27364;49.026;8.712;2023-04-03T01:50:05;4.90;99.90
41678;DHT22;27364;49.026;8.712;2023-04-03T01:52:31;4.80;99.90
41678;DHT22;27364;49.026;8.712;2023-04-03T01:54:57;4.80;99.90
41678;DHT22;27364;49.026;8.712;2023-04-03T01:57:22;4.80;99.90
41678;DHT22;27364;49.026;8.712;2023-04-03T01:59:48;4.80;99.90
41678;DHT22;27364;49.026;8.712;2023-04-03T02:02:13;4.80;99.90
41678;DHT22;27364;49.026;8.712;2023-04-03T02:04:40;4.80;99.90
41678;DHT22;27364;49.026;8.712;2023-04-03T02:07:05;4.80;99.90
41678;DHT22;27364;49.026;8.712;2023-04-03T02:09:31;4.70;99.90
41678;DHT22;27364;49.026;8.712;2023-04-03T02:11:56;4.80;99.90
41678;DHT22;27364;49.026;8.712;2023-04-03T02:14:22;4.80;99.90
41678;DHT22;27364;49.026;8.712;2023-04-03T02:16:49;4.80;99.90
41678;DHT22;27364;49.026;8.712;2023-04-03T02:19:14;4.80;99.90
41678;DHT22;27364;49.026;8.712;2023-04-03T02:21:40;4.70;99.90
41678;DHT22;27364;49.026;8.712;2023-04-03T02:24:06;4.70;99.90
41678;DHT22;27364;49.026;8.712;2023-04-03T02:26:32;4.70;99.90
41678;DHT22;27364;49.026;8.712;2023-04-03T02:28:57;4.70;99.90
41678;DHT22;27364;49.026;8.712;2023-04-03T02:31:23;4.60;99.90
41678;DHT22;27364;49.026;8.712;2023-04-03T02:33:49;4.60;99.90
41678;DHT22;27364;49.026;8.712;2023-04-03T02:36:15;4.60;99.90
41678;DHT22;27364;49.026;8.712;2023-04-03T02:38:41;4.60;99.90
41678;DHT22;27364;49.026;8.712;2023-04-03T02:41:10;4.60;99.90
41678;DHT22;27364;49.026;8.712;2023-04-03T02:43:36;4.60;99.90
41678;DHT22;27364;49.026;8.712;2023-04-03T02:46:02;4.50;99.90
41678;DHT22;27364;49.026;8.712;2023-04-03T02:48:28;4.50;99.90
41678;DHT22;27364;49.026;8.712;2023-04-03T02:50:53;4.40;99.90
41678;DHT22;27364;49.026;8.712;2023-04-03T02:53:19;4.40;99.90
41678;DHT22;27364;49.026;8.712;2023-04-03T02:55:45;4.30;99.90
41678;DHT22;27364;49.026;8.712;2023-04-03T02:58:11;4.30;99.90
41678;DHT22;27364;49.026;8.712;2023-04-03T03:00:37;4.30;99.90
41678;DHT22;27364;49.026;8.712;2023-04-03T03:03:03;4.30;99.90
41678;DHT22;27364;49.026;8.712;2023-04-03T03:05:29;4.30;99.90
41678;DHT22;27364;49.026;8.712;2023-04-03T03:07:55;4.20;99.90
41678;DHT22;27364;49.026;8.712;2023-04-03T03:10:21;4.30;99.90
41678;DHT22;27364;49.026;8.712;2023-04-03T03:12:47;4.20;99.90
41678;DHT22;27364;49.026;8.712;2023-04-03T03:15:12;4.30;99.90
41678;DHT22;27364;49.026;8.712;2023-04-03T03:17:38;4.30;99.90
41678;DHT22;27364;49.026;8.712;2023-04-03T03:20:05;4.20;99.90
41678;DHT22;27364;49.026;8.712;2023-04-03T03:22:32;4.20;99.90
41678;DHT22;27364;49.026;8.712;2023-04-03T03:24:58;4.30;99.90
41678;DHT22;27364;49.026;8.712;2023-04-03T03:27:23;4.20;99.90
41678;DHT22;27364;49.026;8.712;2023-04-03T03:29:50;4.20;99.90
41678;DHT22;27364;49.026;8.712;2023-04-03T03:32:15;4.20;99.90
41678;DHT22;27364;49.026;8.712;2023-04-03T03:34:41;4.20;99.90
41678;DHT22;27364;49.026;8.712;2023-04-03T03:37:06;4.30;99.90
41678;DHT22;27364;49.026;8.712;2023-04-03T03:39:32;4.30;99.90
41678;DHT22;27364;49.026;8.712;2023-04-03T03:41:57;4.30;99.90
41678;DHT22;27364;49.026;8.712;2023-04-03T03:44:23;4.30;99.90
41678;DHT22;27364;49.026;8.712;2023-04-03T03:46:48;4.30;99.90
41678;DHT22;27364;49.026;8.712;2023-04-03T03:49:14;4.30;99.90
41678;DHT22;27364;49.026;8.712;2023-04-03T03:51:40;4.40;99.90
41678;DHT22;27364;49.026;8.712;2023-04-03T03:54:06;4.40;99.90
41678;DHT22;27364;49.026;8.712;2023-04-03T03:56:31;4.50;99.90
41678;DHT22;27364;49.026;8.712;2023-04-03T03:58:57;4.60;99.90
41678;DHT22;27364;49.026;8.712;2023-04-03T04:01:23;4.50;99.90
41678;DHT22;27364;49.026;8.712;2023-04-03T04:03:49;4.50;99.90
41678;DHT22;27364;49.026;8.712;2023-04-03T04:06:15;4.50;99.90
41678;DHT22;27364;49.026;8.712;2023-04-03T04:08:41;4.50;99.90
41678;DHT22;27364;49.026;8.712;2023-04-03T04:11:06;4.50;99.90
41678;DHT22;27364;49.026;8.712;2023-04-03T04:13:32;4.50;99.90
41678;DHT22;27364;49.026;8.712;2023-04-03T04:15:58;4.50;99.90
41678;DHT22;27364;49.026;8.712;2023-04-03T04:18:23;4.50;99.90
41678;DHT22;27364;49.026;8.712;2023-04-03T04:20:49;4.50;99.90
41678;DHT22;27364;49.026;8.712;2023-04-03T04:23:16;4.60;99.90
41678;DHT22;27364;49.026;8.712;2023-04-03T04:25:44;4.60;99.90
41678;DHT22;27364;49.026;8.712;2023-04-03T04:28:10;4.60;99.90
41678;DHT22;27364;49.026;8.712;2023-04-03T04:30:36;4.50;99.90
41678;DHT22;27364;49.026;8.712;2023-04-03T04:33:01;4.50;99.90
41678;DHT22;27364;49.026;8.712;2023-04-03T04:35:27;4.50;99.90
41678;DHT22;27364;49.026;8.712;2023-04-03T04:37:53;4.40;99.90
41678;DHT22;27364;49.026;8.712;2023-04-03T04:40:18;4.40;99.90
41678;DHT22;27364;49.026;8.712;2023-04-03T04:42:44;4.40;99.90
41678;DHT22;27364;49.026;8.712;2023-04-03T04:45:09;4.30;99.90
41678;DHT22;27364;49.026;8.712;2023-04-03T04:47:35;4.10;99.90
41678;DHT22;27364;49.026;8.712;2023-04-03T04:50:01;4.10;99.90
41678;DHT22;27364;49.026;8.712;2023-04-03T04:52:26;4.10;99.90
41678;DHT22;27364;49.026;8.712;2023-04-03T04:54:52;4.20;99.90
41678;DHT22;27364;49.026;8.712;2023-04-03T04:57:17;4.20;99.90
41678;DHT22;27364;49.026;8.712;2023-04-03T04:59:43;4.10;99.90
41678;DHT22;27364;49.026;8.712;2023-04-03T05:02:09;4.00;99.90
41678;DHT22;27364;49.026;8.712;2023-04-03T05:04:34;4.00;99.90
41678;DHT22;27364;49.026;8.712;2023-04-03T05:07:00;3.90;99.90
41678;DHT22;27364;49.026;8.712;2023-04-03T05:09:26;3.90;99.90
41678;DHT22;27364;49.026;8.712;2023-04-03T05:11:51;4.00;99.90
41678;DHT22;27364;49.026;8.712;2023-04-03T05:14:17;4.00;99.90
41678;DHT22;27364;49.026;8.712;2023-04-03T05:16:42;4.00;99.90
41678;DHT22;27364;49.026;8.712;2023-04-03T05:19:08;4.10;99.90
41678;DHT22;27364;49.026;8.712;2023-04-03T05:21:34;4.20;99.90
41678;DHT22;27364;49.026;8.712;2023-04-03T05:24:00;4.10;99.90
41678;DHT22;27364;49.026;8.712;2023-04-03T05:26:31;4.00;99.90
41678;DHT22;27364;49.026;8.712;2023-04-03T05:28:56;3.90;99.90
41678;DHT22;27364;49.026;8.712;2023-04-03T05:31:22;3.90;99.90
41678;DHT22;27364;49.026;8.712;2023-04-03T05:33:48;3.90;99.90
41678;DHT22;27364;49.026;8.712;2023-04-03T05:36:13;4.00;99.90
41678;DHT22;27364;49.026;8.712;2023-04-03T05:38:39;3.90;99.90
41678;DHT22;27364;49.026;8.712;2023-04-03T05:41:05;4.00;99.90
41678;DHT22;27364;49.026;8.712;2023-04-03T05:43:31;4.00;99.90
41678;DHT22;27364;49.026;8.712;2023-04-03T05:45:56;4.00;99.90
41678;DHT22;27364;49.026;8.712;2023-04-03T05:48:22;4.10;99.90
41678;DHT22;27364;49.026;8.712;2023-04-03T05:50:47;4.10;99.90
41678;DHT22;27364;49.026;8.712;2023-04-03T05:53:18;4.10;99.90
41678;DHT22;27364;49.026;8.712;2023-04-03T05:55:45;4.20;99.90
41678;DHT22;27364;49.026;8.712;2023-04-03T05:58:12;4.20;99.90
41678;DHT22;27364;49.026;8.712;2023-04-03T06:00:38;4.20;99.90
41678;DHT22;27364;49.026;8.712;2023-04-03T06:03:04;4.30;99.90
41678;DHT22;27364;49.026;8.712;2023-04-03T06:05:30;4.30;99.90
41678;DHT22;27364;49.026;8.712;2023-04-03T06:07:55;4.20;99.90
41678;DHT22;27364;49.026;8.712;2023-04-03T06:10:22;4.30;99.90
41678;DHT22;27364;49.026;8.712;2023-04-03T06:12:48;4.40;99.90
41678;DHT22;27364;49.026;8.712;2023-04-03T06:15:13;4.40;99.90
41678;DHT22;27364;49.026;8.712;2023-04-03T06:17:40;4.40;99.90
41678;DHT22;27364;49.026;8.712;2023-04-03T06:20:06;4.50;99.90
41678;DHT22;27364;49.026;8.712;2023-04-03T06:22:31;4.50;99.90
41678;DHT22;27364;49.026;8.712;2023-04-03T06:24:57;4.50;99.90
41678;DHT22;27364;49.026;8.712;2023-04-03T06:27:23;4.50;99.90
41678;DHT22;27364;49.026;8.712;2023-04-03T06:29:48;4.50;99.90
41678;DHT22;27364;49.026;8.712;2023-04-03T06:32:15;4.60;99.90
41678;DHT22;27364;49.026;8.712;2023-04-03T06:34:40;4.60;99.90
41678;DHT22;27364;49.026;8.712;2023-04-03T06:37:10;4.70;99.90
41678;DHT22;27364;49.026;8.712;2023-04-03T06:39:36;4.70;99.90
41678;DHT22;27364;49.026;8.712;2023-04-03T06:42:01;4.80;99.90
41678;DHT22;27364;49.026;8.712;2023-04-03T06:44:27;4.70;99.90
41678;DHT22;27364;49.026;8.712;2023-04-03T06:46:52;4.70;99.90
41678;DHT22;27364;49.026;8.712;2023-04-03T06:49:19;4.80;99.90
41678;DHT22;27364;49.026;8.712;2023-04-03T06:51:45;4.80;99.90
41678;DHT22;27364;49.026;8.712;2023-04-03T06:54:10;4.80;99.90
41678;DHT22;27364;49.026;8.712;2023-04-03T06:56:36;4.80;99.90
41678;DHT22;27364;49.026;8.712;2023-04-03T06:59:02;4.90;99.90
41678;DHT22;27364;49.026;8.712;2023-04-03T07:01:29;4.90;99.90
41678;DHT22;27364;49.026;8.712;2023-04-03T07:03:56;5.00;99.90
41678;DHT22;27364;49.026;8.712;2023-04-03T07:06:22;4.90;99.90
41678;DHT22;27364;49.026;8.712;2023-04-03T07:08:47;5.00;99.90
41678;DHT22;27364;49.026;8.712;2023-04-03T07:11:16;5.00;99.90
41678;DHT22;27364;49.026;8.712;2023-04-03T07:13:42;5.00;99.90
41678;DHT22;27364;49.026;8.712;2023-04-03T07:16:08;5.10;99.90
41678;DHT22;27364;49.026;8.712;2023-04-03T07:18:34;5.10;99.90
41678;DHT22;27364;49.026;8.712;2023-04-03T07:21:00;5.20;99.90
41678;DHT22;27364;49.026;8.712;2023-04-03T07:23:25;5.20;99.90
41678;DHT22;27364;49.026;8.712;2023-04-03T07:25:52;5.20;99.90
41678;DHT22;27364;49.026;8.712;2023-04-03T07:28:18;5.20;99.90
41678;DHT22;27364;49.026;8.712;2023-04-03T07:30:49;5.30;99.90
41678;DHT22;27364;49.026;8.712;2023-04-03T07:33:17;5.40;99.90
41678;DHT22;27364;49.026;8.712;2023-04-03T07:35:43;5.40;99.90
41678;DHT22;27364;49.026;8.712;2023-04-03T07:38:09;5.50;99.90
41678;DHT22;27364;49.026;8.712;2023-04-03T07:40:35;5.50;99.90
41678;DHT22;27364;49.026;8.712;2023-04-03T07:43:01;5.60;99.90
41678;DHT22;27364;49.026;8.712;2023-04-03T07:45:28;5.70;99.90
41678;DHT22;27364;49.026;8.712;2023-04-03T07:47:54;5.70;99.90
41678;DHT22;27364;49.026;8.712;2023-04-03T07:50:19;5.70;99.90
41678;DHT22;27364;49.026;8.712;2023-04-03T07:52:45;5.70;99.90
41678;DHT22;27364;49.026;8.712;2023-04-03T07:55:11;5.80;99.90
41678;DHT22;27364;49.026;8.712;2023-04-03T07:57:37;5.80;99.90
41678;DHT22;27364;49.026;8.712;2023-04-03T08:00:04;5.90;99.90
41678;DHT22;27364;49.026;8.712;2023-04-03T08:02:30;6.00;99.90
41678;DHT22;27364;49.026;8.712;2023-04-03T08:04:57;6.00;99.90
41678;DHT22;27364;49.026;8.712;2023-04-03T08:07:23;6.10;99.90
41678;DHT22;27364;49.026;8.712;2023-04-03T08:09:48;6.10;99.90
41678;DHT22;27364;49.026;8.712;2023-04-03T08:12:14;6.20;99.90
41678;DHT22;27364;49.026;8.712;2023-04-03T08:14:40;6.30;99.90
41678;DHT22;27364;49.026;8.712;2023-04-03T08:17:06;6.30;99.90
41678;DHT22;27364;49.026;8.712;2023-04-03T08:19:34;6.30;99.90
41678;DHT22;27364;49.026;8.712;2023-04-03T08:22:00;6.40;99.90
41678;DHT22;27364;49.026;8.712;2023-04-03T08:24:28;6.40;99.90
41678;DHT22;27364;49.026;8.712;2023-04-03T08:26:54;6.50;99.90
41678;DHT22;27364;49.026;8.712;2023-04-03T08:29:20;6.60;99.90
41678;DHT22;27364;49.026;8.712;2023-04-03T08:31:46;6.70;99.90
41678;DHT22;27364;49.026;8.712;2023-04-03T08:34:13;6.70;99.90
41678;DHT22;27364;49.026;8.712;2023-04-03T08:36:39;6.70;99.90
41678;DHT22;27364;49.026;8.712;2023-04-03T08:39:05;6.80;99.90
41678;DHT22;27364;49.026;8.712;2023-04-03T08:41:37;6.90;99.90
41678;DHT22;27364;49.026;8.712;2023-04-03T08:51:54;7.10;99.90
41678;DHT22;27364;49.026;8.712;2023-04-03T08:54:31;7.10;99.90
41678;DHT22;27364;49.026;8.712;2023-04-03T08:57:01;7.00;99.90
41678;DHT22;27364;49.026;8.712;2023-04-03T08:59:34;7.00;99.90
41678;DHT22;27364;49.026;8.712;2023-04-03T09:02:04;7.00;99.90
41678;DHT22;27364;49.026;8.712;2023-04-03T09:04:38;7.10;99.90
41678;DHT22;27364;49.026;8.712;2023-04-03T09:07:10;7.20;99.90
41678;DHT22;27364;49.026;8.712;2023-04-03T09:09:41;7.30;99.90
41678;DHT22;27364;49.026;8.712;2023-04-03T09:12:28;7.40;99.90
41678;DHT22;27364;49.026;8.712;2023-04-03T09:17:41;7.80;99.90
41678;DHT22;27364;49.026;8.712;2023-04-03T09:22:45;8.20;99.90
41678;DHT22;27364;49.026;8.712;2023-04-03T09:25:22;8.30;99.80
41678;DHT22;27364;49.026;8.712;2023-04-03T09:27:49;8.20;99.90
41678;DHT22;27364;49.026;8.712;2023-04-03T09:30:19;8.40;99.90
41678;DHT22;27364;49.026;8.712;2023-04-03T09:32:48;8.60;98.30
41678;DHT22;27364;49.026;8.712;2023-04-03T09:35:32;8.80;98.20
41678;DHT22;27364;49.026;8.712;2023-04-03T09:40:40;9.00;97.70
41678;DHT22;27364;49.026;8.712;2023-04-03T09:43:28;9.10;96.60
41678;DHT22;27364;49.026;8.712;2023-04-03T09:45:55;9.20;96.00
41678;DHT22;27364;49.026;8.712;2023-04-03T09:48:24;9.20;94.80
41678;DHT22;27364;49.026;8.712;2023-04-03T09:55:56;9.10;92.40
41678;DHT22;27364;49.026;8.712;2023-04-03T09:58:38;8.90;92.50
41678;DHT22;27364;49.026;8.712;2023-04-03T10:01:09;8.70;92.40
41678;DHT22;27364;49.026;8.712;2023-04-03T10:03:45;8.70;92.30
41678;DHT22;27364;49.026;8.712;2023-04-03T10:06:22;9.10;95.50
41678;DHT22;27364;49.026;8.712;2023-04-03T10:09:05;9.30;92.90
41678;DHT22;27364;49.026;8.712;2023-04-03T10:11:31;9.30;94.00
41678;DHT22;27364;49.026;8.712;2023-04-03T10:13:59;9.30;91.80
41678;DHT22;27364;49.026;8.712;2023-04-03T10:16:29;9.10;90.50
41678;DHT22;27364;49.026;8.712;2023-04-03T10:19:01;9.10;89.70
41678;DHT22;27364;49.026;8.712;2023-04-03T10:21:48;8.90;90.90
41678;DHT22;27364;49.026;8.712;2023-04-03T10:24:44;9.00;90.20
41678;DHT22;27364;49.026;8.712;2023-04-03T10:35:43;8.90;84.80
41678;DHT22;27364;49.026;8.712;2023-04-03T10:41:15;8.60;87.00
41678;DHT22;27364;49.026;8.712;2023-04-03T10:43:51;8.60;86.30
41678;DHT22;27364;49.026;8.712;2023-04-03T10:46:31;8.60;85.80
41678;DHT22;27364;49.026;8.712;2023-04-03T10:49:13;8.60;86.40
41678;DHT22;27364;49.026;8.712;2023-04-03T10:52:06;8.60;87.80
41678;DHT22;27364;49.026;8.712;2023-04-03T10:57:30;8.80;85.70
41678;DHT22;27364;49.026;8.712;2023-04-03T10:59:59;8.80;87.00
41678;DHT22;27364;49.026;8.712;2023-04-03T11:02:33;8.70;88.00
41678;DHT22;27364;49.026;8.712;2023-04-03T11:05:05;8.70;86.20
41678;DHT22;27364;49.026;8.712;2023-04-03T11:07:39;8.70;86.40
41678;DHT22;27364;49.026;8.712;2023-04-03T11:10:13;8.70;85.40
41678;DHT22;27364;49.026;8.712;2023-04-03T11:12:46;8.60;84.60
41678;DHT22;27364;49.026;8.712;2023-04-03T11:15:16;8.60;85.00
41678;DHT22;27364;49.026;8.712;2023-04-03T11:17:57;8.50;84.60
41678;DHT22;27364;49.026;8.712;2023-04-03T11:20:31;8.50;84.30
41678;DHT22;27364;49.026;8.712;2023-04-03T11:23:26;8.30;86.00
41678;DHT22;27364;49.026;8.712;2023-04-03T11:25:58;8.20;85.00
41678;DHT22;27364;49.026;8.712;2023-04-03T11:28:26;8.20;87.00
41678;DHT22;27364;49.026;8.712;2023-04-03T11:33:40;8.30;84.30
41678;DHT22;27364;49.026;8.712;2023-04-03T11:38:46;8.30;85.40
41678;DHT22;27364;49.026;8.712;2023-04-03T11:41:13;8.20;82.90
41678;DHT22;27364;49.026;8.712;2023-04-03T11:43:59;8.30;87.50
41678;DHT22;27364;49.026;8.712;2023-04-03T11:46:54;8.20;86.10
41678;DHT22;27364;49.026;8.712;2023-04-03T11:49:52;8.10;85.00
41678;DHT22;27364;49.026;8.712;2023-04-03T12:05:48;8.00;80.20
41678;DHT22;27364;49.026;8.712;2023-04-03T12:16:25;8.20;83.90
41678;DHT22;27364;49.026;8.712;2023-04-03T12:21:20;8.20;83.30
41678;DHT22;27364;49.026;8.712;2023-04-03T12:38:35;8.10;84.40
41678;DHT22;27364;49.026;8.712;2023-04-03T12:41:19;8.10;85.70
41678;DHT22;27364;49.026;8.712;2023-04-03T12:46:33;8.00;81.60
41678;DHT22;27364;49.026;8.712;2023-04-03T12:48:59;7.90;82.70
41678;DHT22;27364;49.026;8.712;2023-04-03T12:51:36;7.90;84.00
41678;DHT22;27364;49.026;8.712;2023-04-03T12:56:44;8.00;84.60
41678;DHT22;27364;49.026;8.712;2023-04-03T12:59:20;8.30;84.90
41678;DHT22;27364;49.026;8.712;2023-04-03T13:04:53;8.50;79.60
41678;DHT22;27364;49.026;8.712;2023-04-03T13:07:23;8.50;81.40
41678;DHT22;27364;49.026;8.712;2023-04-03T13:10:17;8.40;79.20
41678;DHT22;27364;49.026;8.712;2023-04-03T13:15:18;8.10;79.40
41678;DHT22;27364;49.026;8.712;2023-04-03T13:17:44;8.10;79.50
41678;DHT22;27364;49.026;8.712;2023-04-03T13:20:20;8.20;81.00
41678;DHT22;27364;49.026;8.712;2023-04-03T13:22:56;8.20;82.30
41678;DHT22;27364;49.026;8.712;2023-04-03T13:25:23;8.30;82.00
41678;DHT22;27364;49.026;8.712;2023-04-03T13:27:50;8.30;82.00
41678;DHT22;27364;49.026;8.712;2023-04-03T13:30:34;8.30;82.80
41678;DHT22;27364;49.026;8.712;2023-04-03T13:33:04;8.40;81.30
41678;DHT22;27364;49.026;8.712;2023-04-03T13:35:39;8.50;79.40
41678;DHT22;27364;49.026;8.712;2023-04-03T13:38:27;8.50;78.80
41678;DHT22;27364;49.026;8.712;2023-04-03T13:40:56;8.40;79.60
41678;DHT22;27364;49.026;8.712;2023-04-03T13:43:32;8.40;79.80
41678;DHT22;27364;49.026;8.712;2023-04-03T13:51:17;8.20;80.30
41678;DHT22;27364;49.026;8.712;2023-04-03T13:56:18;8.20;79.50
41678;DHT22;27364;49.026;8.712;2023-04-03T14:01:51;8.60;81.60
41678;DHT22;27364;49.026;8.712;2023-04-03T14:04:24;8.70;78.10
41678;DHT22;27364;49.026;8.712;2023-04-03T14:06:51;8.70;77.70
41678;DHT22;27364;49.026;8.712;2023-04-03T14:09:18;8.70;76.10
41678;DHT22;27364;49.026;8.712;2023-04-03T14:11:45;8.60;78.60
41678;DHT22;27364;49.026;8.712;2023-04-03T14:14:23;8.60;76.60
41678;DHT22;27364;49.026;8.712;2023-04-03T14:16:57;8.50;79.00
41678;DHT22;27364;49.026;8.712;2023-04-03T14:19:35;8.50;75.70
41678;DHT22;27364;49.026;8.712;2023-04-03T14:22:11;8.40;76.20
41678;DHT22;27364;49.026;8.712;2023-04-03T14:24:37;8.40;76.30
41678;DHT22;27364;49.026;8.712;2023-04-03T14:27:24;8.30;77.40
41678;DHT22;27364;49.026;8.712;2023-04-03T14:29:52;8.30;76.80
41678;DHT22;27364;49.026;8.712;2023-04-03T14:32:20;8.30;73.60
41678;DHT22;27364;49.026;8.712;2023-04-03T14:34:47;8.60;76.70
41678;DHT22;27364;49.026;8.712;2023-04-03T14:37:19;9.00;75.40
41678;DHT22;27364;49.026;8.712;2023-04-03T14:39:46;9.20;71.00
41678;DHT22;27364;49.026;8.712;2023-04-03T14:42:14;9.20;73.00
41678;DHT22;27364;49.026;8.712;2023-04-03T14:44:40;9.20;72.60
41678;DHT22;27364;49.026;8.712;2023-04-03T14:47:13;9.10;74.00
41678;DHT22;27364;49.026;8.712;2023-04-03T14:49:40;9.00;72.50
41678;DHT22;27364;49.026;8.712;2023-04-03T14:52:06;8.80;73.60
41678;DHT22;27364;49.026;8.712;2023-04-03T14:54:32;8.70;70.80
41678;DHT22;27364;49.026;8.712;2023-04-03T14:56:59;8.60;72.10
41678;DHT22;27364;49.026;8.712;2023-04-03T14:59:26;8.60;69.90
41678;DHT22;27364;49.026;8.712;2023-04-03T15:01:51;8.60;73.20
41678;DHT22;27364;49.026;8.712;2023-04-03T15:04:19;9.30;70.90
41678;DHT22;27364;49.026;8.712;2023-04-03T15:06:46;9.60;69.30
41678;DHT22;27364;49.026;8.712;2023-04-03T15:09:23;10.70;67.20
41678;DHT22;27364;49.026;8.712;2023-04-03T15:11:50;11.80;65.00
41678;DHT22;27364;49.026;8.712;2023-04-03T15:14:16;12.70;58.10
41678;DHT22;27364;49.026;8.712;2023-04-03T15:16:42;13.00;57.90
41678;DHT22;27364;49.026;8.712;2023-04-03T15:19:08;12.40;56.70
41678;DHT22;27364;49.026;8.712;2023-04-03T15:21:34;11.80;58.60
41678;DHT22;27364;49.026;8.712;2023-04-03T15:24:00;11.40;60.20
41678;DHT22;27364;49.026;8.712;2023-04-03T15:26:25;10.90;58.00
41678;DHT22;27364;49.026;8.712;2023-04-03T15:28:51;10.30;59.20
41678;DHT22;27364;49.026;8.712;2023-04-03T15:31:16;10.10;62.40
41678;DHT22;27364;49.026;8.712;2023-04-03T15:33:42;10.10;60.90
41678;DHT22;27364;49.026;8.712;2023-04-03T15:36:08;10.10;59.90
41678;DHT22;27364;49.026;8.712;2023-04-03T15:38:34;10.30;60.50
41678;DHT22;27364;49.026;8.712;2023-04-03T15:41:00;10.70;62.40
41678;DHT22;27364;49.026;8.712;2023-04-03T15:43:26;10.70;59.20
41678;DHT22;27364;49.026;8.712;2023-04-03T15:45:52;10.60;58.60
41678;DHT22;27364;49.026;8.712;2023-04-03T15:48:21;10.30;58.20
41678;DHT22;27364;49.026;8.712;2023-04-03T15:50:47;10.10;60.40
41678;DHT22;27364;49.026;8.712;2023-04-03T15:53:12;9.90;62.80
41678;DHT22;27364;49.026;8.712;2023-04-03T15:55:38;9.90;61.00
41678;DHT22;27364;49.026;8.712;2023-04-03T15:58:04;10.00;61.00
41678;DHT22;27364;49.026;8.712;2023-04-03T16:00:30;9.90;63.00
41678;DHT22;27364;49.026;8.712;2023-04-03T16:03:04;10.20;64.30
41678;DHT22;27364;49.026;8.712;2023-04-03T16:05:30;10.30;61.10
41678;DHT22;27364;49.026;8.712;2023-04-03T16:07:58;10.20;59.50
41678;DHT22;27364;49.026;8.712;2023-04-03T16:10:24;9.80;57.80
41678;DHT22;27364;49.026;8.712;2023-04-03T16:12:50;9.60;62.00
41678;DHT22;27364;49.026;8.712;2023-04-03T16:15:16;9.30;61.20
41678;DHT22;27364;49.026;8.712;2023-04-03T16:17:42;9.40;62.60
41678;DHT22;27364;49.026;8.712;2023-04-03T16:20:09;9.70;62.10
41678;DHT22;27364;49.026;8.712;2023-04-03T16:22:35;9.90;62.60
41678;DHT22;27364;49.026;8.712;2023-04-03T16:25:02;10.30;61.70
41678;DHT22;27364;49.026;8.712;2023-04-03T16:27:28;10.40;57.90
41678;DHT22;27364;49.026;8.712;2023-04-03T16:29:56;10.50;59.60
41678;DHT22;27364;49.026;8.712;2023-04-03T16:32:23;10.40;57.30
41678;DHT22;27364;49.026;8.712;2023-04-03T16:34:50;10.00;58.00
41678;DHT22;27364;49.026;8.712;2023-04-03T16:37:16;9.70;60.10
41678;DHT22;27364;49.026;8.712;2023-04-03T16:39:42;9.50;60.90
41678;DHT22;27364;49.026;8.712;2023-04-03T16:42:07;9.20;60.60
41678;DHT22;27364;49.026;8.712;2023-04-03T16:44:34;9.30;64.80
41678;DHT22;27364;49.026;8.712;2023-04-03T16:47:00;9.50;61.70
41678;DHT22;27364;49.026;8.712;2023-04-03T16:49:26;9.60;61.70
41678;DHT22;27364;49.026;8.712;2023-04-03T16:51:55;9.90;62.30
41678;DHT22;27364;49.026;8.712;2023-04-03T16:54:20;9.80;58.60
41678;DHT22;27364;49.026;8.712;2023-04-03T16:56:46;9.90;60.00
41678;DHT22;27364;49.026;8.712;2023-04-03T16:59:12;9.80;59.00
41678;DHT22;27364;49.026;8.712;2023-04-03T17:01:37;9.70;58.20
41678;DHT22;27364;49.026;8.712;2023-04-03T17:04:03;9.60;59.50
41678;DHT22;27364;49.026;8.712;2023-04-03T17:06:28;9.40;61.00
41678;DHT22;27364;49.026;8.712;2023-04-03T17:08:54;9.30;61.30
41678;DHT22;27364;49.026;8.712;2023-04-03T17:11:19;9.00;61.20
41678;DHT22;27364;49.026;8.712;2023-04-03T17:13:45;8.90;61.50
41678;DHT22;27364;49.026;8.712;2023-04-03T17:16:14;8.70;62.50
41678;DHT22;27364;49.026;8.712;2023-04-03T17:18:40;8.60;64.80
41678;DHT22;27364;49.026;8.712;2023-04-03T17:21:07;8.40;62.90
41678;DHT22;27364;49.026;8.712;2023-04-03T17:23:34;8.40;65.10
41678;DHT22;27364;49.026;8.712;2023-04-03T17:26:01;8.30;66.00
41678;DHT22;27364;49.026;8.712;2023-04-03T17:28:27;8.20;63.20
41678;DHT22;27364;49.026;8.712;2023-04-03T17:30:59;8.10;63.00
41678;DHT22;27364;49.026;8.712;2023-04-03T17:33:25;8.10;63.10
41678;DHT22;27364;49.026;8.712;2023-04-03T17:35:55;8.00;64.20